<?xml version="1.0" encoding="UTF-8" standalone="no" ?>
<gpx xmlns="http://www.topografix.com/GPX/1/1" xmlns:xsi="http://www.w3.org/2001/XMLSchema-instance" xsi:schemaLocation="http://www.topografix.com/GPX/1/1 http://www.topografix.com/GPX/1/1/gpx.xsd" version="1.1" creator="VisuGPX - https://www.visugpx.com">
  <metadata>
    <name>Parcours du 03 Oct. 2014</name>
    <desc><![CDATA[Parcours normal au Plateau. Encore difficile physiquement.]]></desc>
  </metadata>
  <trk>
    <name><![CDATA[Sequence 1]]></name>
    <trkseg>
      <trkpt lat="47.29436" lon="4.99382">
        <ele>343</ele>
        <time>2014-10-03T10:34:32Z</time>
      </trkpt>
      <trkpt lat="47.29436" lon="4.99383">
        <ele>342</ele>
        <time>2014-10-03T10:34:38Z</time>
      </trkpt>
      <trkpt lat="47.29436" lon="4.99382">
        <ele>342</ele>
        <time>2014-10-03T10:34:39Z</time>
      </trkpt>
      <trkpt lat="47.29436" lon="4.99382">
        <ele>342</ele>
        <time>2014-10-03T10:34:45Z</time>
      </trkpt>
      <trkpt lat="47.29436" lon="4.99382">
        <ele>343</ele>
        <time>2014-10-03T10:34:56Z</time>
      </trkpt>
      <trkpt lat="47.29421" lon="4.99376">
        <ele>353</ele>
        <time>2014-10-03T10:35:02Z</time>
      </trkpt>
      <trkpt lat="47.29421" lon="4.99376">
        <ele>353</ele>
        <time>2014-10-03T10:35:03Z</time>
      </trkpt>
      <trkpt lat="47.29421" lon="4.99375">
        <ele>354</ele>
        <time>2014-10-03T10:35:09Z</time>
      </trkpt>
      <trkpt lat="47.29419" lon="4.99371">
        <ele>352</ele>
        <time>2014-10-03T10:35:15Z</time>
      </trkpt>
      <trkpt lat="47.29416" lon="4.99371">
        <ele>352</ele>
        <time>2014-10-03T10:35:21Z</time>
      </trkpt>
      <trkpt lat="47.29422" lon="4.9937">
        <ele>354</ele>
        <time>2014-10-03T10:35:28Z</time>
      </trkpt>
      <trkpt lat="47.29443" lon="4.99366">
        <ele>352</ele>
        <time>2014-10-03T10:35:37Z</time>
      </trkpt>
      <trkpt lat="47.29448" lon="4.99368">
        <ele>353</ele>
        <time>2014-10-03T10:35:39Z</time>
      </trkpt>
      <trkpt lat="47.29474" lon="4.99381">
        <ele>355</ele>
        <time>2014-10-03T10:35:50Z</time>
      </trkpt>
      <trkpt lat="47.29475" lon="4.99382">
        <ele>355</ele>
        <time>2014-10-03T10:35:51Z</time>
      </trkpt>
      <trkpt lat="47.29495" lon="4.99385">
        <ele>357</ele>
        <time>2014-10-03T10:36:00Z</time>
      </trkpt>
      <trkpt lat="47.29513" lon="4.99383">
        <ele>359</ele>
        <time>2014-10-03T10:36:07Z</time>
      </trkpt>
      <trkpt lat="47.29518" lon="4.99382">
        <ele>360</ele>
        <time>2014-10-03T10:36:09Z</time>
      </trkpt>
      <trkpt lat="47.29535" lon="4.9937">
        <ele>361</ele>
        <time>2014-10-03T10:36:19Z</time>
      </trkpt>
      <trkpt lat="47.29538" lon="4.99368">
        <ele>363</ele>
        <time>2014-10-03T10:36:21Z</time>
      </trkpt>
      <trkpt lat="47.29558" lon="4.99362">
        <ele>368</ele>
        <time>2014-10-03T10:36:32Z</time>
      </trkpt>
      <trkpt lat="47.2956" lon="4.99361">
        <ele>369</ele>
        <time>2014-10-03T10:36:33Z</time>
      </trkpt>
      <trkpt lat="47.29567" lon="4.99348">
        <ele>368</ele>
        <time>2014-10-03T10:36:39Z</time>
      </trkpt>
      <trkpt lat="47.29571" lon="4.99335">
        <ele>369</ele>
        <time>2014-10-03T10:36:45Z</time>
      </trkpt>
      <trkpt lat="47.29585" lon="4.99335">
        <ele>363</ele>
        <time>2014-10-03T10:36:51Z</time>
      </trkpt>
      <trkpt lat="47.29603" lon="4.99344">
        <ele>366</ele>
        <time>2014-10-03T10:36:59Z</time>
      </trkpt>
      <trkpt lat="47.2961" lon="4.9935">
        <ele>366</ele>
        <time>2014-10-03T10:37:03Z</time>
      </trkpt>
      <trkpt lat="47.29615" lon="4.99358">
        <ele>364</ele>
        <time>2014-10-03T10:37:09Z</time>
      </trkpt>
      <trkpt lat="47.2962" lon="4.99386">
        <ele>362</ele>
        <time>2014-10-03T10:37:16Z</time>
      </trkpt>
      <trkpt lat="47.29632" lon="4.99399">
        <ele>362</ele>
        <time>2014-10-03T10:37:22Z</time>
      </trkpt>
      <trkpt lat="47.29643" lon="4.99404">
        <ele>359</ele>
        <time>2014-10-03T10:37:28Z</time>
      </trkpt>
      <trkpt lat="47.29659" lon="4.99401">
        <ele>358</ele>
        <time>2014-10-03T10:37:36Z</time>
      </trkpt>
      <trkpt lat="47.29666" lon="4.99403">
        <ele>359</ele>
        <time>2014-10-03T10:37:39Z</time>
      </trkpt>
      <trkpt lat="47.2968" lon="4.99413">
        <ele>360</ele>
        <time>2014-10-03T10:37:46Z</time>
      </trkpt>
      <trkpt lat="47.29694" lon="4.99421">
        <ele>363</ele>
        <time>2014-10-03T10:37:51Z</time>
      </trkpt>
      <trkpt lat="47.29715" lon="4.99436">
        <ele>364</ele>
        <time>2014-10-03T10:38:00Z</time>
      </trkpt>
      <trkpt lat="47.29724" lon="4.99446">
        <ele>363</ele>
        <time>2014-10-03T10:38:06Z</time>
      </trkpt>
      <trkpt lat="47.29731" lon="4.99451">
        <ele>364</ele>
        <time>2014-10-03T10:38:09Z</time>
      </trkpt>
      <trkpt lat="47.29747" lon="4.99444">
        <ele>363</ele>
        <time>2014-10-03T10:38:18Z</time>
      </trkpt>
      <trkpt lat="47.29752" lon="4.99452">
        <ele>361</ele>
        <time>2014-10-03T10:38:21Z</time>
      </trkpt>
      <trkpt lat="47.29752" lon="4.99454">
        <ele>363</ele>
        <time>2014-10-03T10:38:32Z</time>
      </trkpt>
      <trkpt lat="47.29752" lon="4.99454">
        <ele>363</ele>
        <time>2014-10-03T10:38:33Z</time>
      </trkpt>
      <trkpt lat="47.29755" lon="4.99457">
        <ele>361</ele>
        <time>2014-10-03T10:38:39Z</time>
      </trkpt>
      <trkpt lat="47.29758" lon="4.99461">
        <ele>359</ele>
        <time>2014-10-03T10:38:45Z</time>
      </trkpt>
      <trkpt lat="47.29756" lon="4.99462">
        <ele>356</ele>
        <time>2014-10-03T10:38:54Z</time>
      </trkpt>
      <trkpt lat="47.29758" lon="4.99464">
        <ele>356</ele>
        <time>2014-10-03T10:39:02Z</time>
      </trkpt>
      <trkpt lat="47.29759" lon="4.99463">
        <ele>356</ele>
        <time>2014-10-03T10:39:07Z</time>
      </trkpt>
      <trkpt lat="47.29759" lon="4.99462">
        <ele>356</ele>
        <time>2014-10-03T10:39:09Z</time>
      </trkpt>
      <trkpt lat="47.29759" lon="4.99462">
        <ele>356</ele>
        <time>2014-10-03T10:39:15Z</time>
      </trkpt>
      <trkpt lat="47.29759" lon="4.99462">
        <ele>356</ele>
        <time>2014-10-03T10:39:21Z</time>
      </trkpt>
      <trkpt lat="47.29759" lon="4.99462">
        <ele>356</ele>
        <time>2014-10-03T10:39:27Z</time>
      </trkpt>
      <trkpt lat="47.29769" lon="4.99472">
        <ele>354</ele>
        <time>2014-10-03T10:39:33Z</time>
      </trkpt>
      <trkpt lat="47.29782" lon="4.99477">
        <ele>354</ele>
        <time>2014-10-03T10:39:39Z</time>
      </trkpt>
      <trkpt lat="47.29791" lon="4.99469">
        <ele>355</ele>
        <time>2014-10-03T10:39:45Z</time>
      </trkpt>
      <trkpt lat="47.29803" lon="4.99451">
        <ele>356</ele>
        <time>2014-10-03T10:39:51Z</time>
      </trkpt>
      <trkpt lat="47.29811" lon="4.99449">
        <ele>355</ele>
        <time>2014-10-03T10:39:57Z</time>
      </trkpt>
      <trkpt lat="47.29822" lon="4.99448">
        <ele>355</ele>
        <time>2014-10-03T10:40:03Z</time>
      </trkpt>
      <trkpt lat="47.2984" lon="4.99448">
        <ele>354</ele>
        <time>2014-10-03T10:40:09Z</time>
      </trkpt>
      <trkpt lat="47.29859" lon="4.99458">
        <ele>353</ele>
        <time>2014-10-03T10:40:15Z</time>
      </trkpt>
      <trkpt lat="47.29892" lon="4.99461">
        <ele>353</ele>
        <time>2014-10-03T10:40:24Z</time>
      </trkpt>
      <trkpt lat="47.29901" lon="4.99466">
        <ele>354</ele>
        <time>2014-10-03T10:40:27Z</time>
      </trkpt>
      <trkpt lat="47.2991" lon="4.99479">
        <ele>354</ele>
        <time>2014-10-03T10:40:33Z</time>
      </trkpt>
      <trkpt lat="47.29923" lon="4.99487">
        <ele>355</ele>
        <time>2014-10-03T10:40:39Z</time>
      </trkpt>
      <trkpt lat="47.2994" lon="4.99489">
        <ele>359</ele>
        <time>2014-10-03T10:40:45Z</time>
      </trkpt>
      <trkpt lat="47.29976" lon="4.99479">
        <ele>353</ele>
        <time>2014-10-03T10:40:54Z</time>
      </trkpt>
      <trkpt lat="47.29995" lon="4.9946">
        <ele>355</ele>
        <time>2014-10-03T10:41:02Z</time>
      </trkpt>
      <trkpt lat="47.3" lon="4.99452">
        <ele>356</ele>
        <time>2014-10-03T10:41:05Z</time>
      </trkpt>
      <trkpt lat="47.30011" lon="4.99431">
        <ele>359</ele>
        <time>2014-10-03T10:41:12Z</time>
      </trkpt>
      <trkpt lat="47.30013" lon="4.99421">
        <ele>359</ele>
        <time>2014-10-03T10:41:15Z</time>
      </trkpt>
      <trkpt lat="47.3002" lon="4.9941">
        <ele>360</ele>
        <time>2014-10-03T10:41:21Z</time>
      </trkpt>
      <trkpt lat="47.30024" lon="4.99395">
        <ele>359</ele>
        <time>2014-10-03T10:41:27Z</time>
      </trkpt>
      <trkpt lat="47.30032" lon="4.99367">
        <ele>357</ele>
        <time>2014-10-03T10:41:36Z</time>
      </trkpt>
      <trkpt lat="47.30043" lon="4.9936">
        <ele>356</ele>
        <time>2014-10-03T10:41:42Z</time>
      </trkpt>
      <trkpt lat="47.30044" lon="4.99352">
        <ele>354</ele>
        <time>2014-10-03T10:41:45Z</time>
      </trkpt>
      <trkpt lat="47.3005" lon="4.99336">
        <ele>357</ele>
        <time>2014-10-03T10:41:51Z</time>
      </trkpt>
      <trkpt lat="47.30051" lon="4.99317">
        <ele>360</ele>
        <time>2014-10-03T10:41:57Z</time>
      </trkpt>
      <trkpt lat="47.30036" lon="4.993">
        <ele>359</ele>
        <time>2014-10-03T10:42:07Z</time>
      </trkpt>
      <trkpt lat="47.30027" lon="4.99296">
        <ele>357</ele>
        <time>2014-10-03T10:42:12Z</time>
      </trkpt>
      <trkpt lat="47.30021" lon="4.99291">
        <ele>357</ele>
        <time>2014-10-03T10:42:16Z</time>
      </trkpt>
      <trkpt lat="47.30013" lon="4.99284">
        <ele>357</ele>
        <time>2014-10-03T10:42:21Z</time>
      </trkpt>
      <trkpt lat="47.30001" lon="4.99281">
        <ele>355</ele>
        <time>2014-10-03T10:42:27Z</time>
      </trkpt>
      <trkpt lat="47.29979" lon="4.99269">
        <ele>358</ele>
        <time>2014-10-03T10:42:38Z</time>
      </trkpt>
      <trkpt lat="47.29978" lon="4.99266">
        <ele>359</ele>
        <time>2014-10-03T10:42:39Z</time>
      </trkpt>
      <trkpt lat="47.29973" lon="4.99234">
        <ele>362</ele>
        <time>2014-10-03T10:42:50Z</time>
      </trkpt>
      <trkpt lat="47.29972" lon="4.99212">
        <ele>368</ele>
        <time>2014-10-03T10:42:56Z</time>
      </trkpt>
      <trkpt lat="47.29971" lon="4.99208">
        <ele>367</ele>
        <time>2014-10-03T10:42:57Z</time>
      </trkpt>
      <trkpt lat="47.29967" lon="4.99181">
        <ele>368</ele>
        <time>2014-10-03T10:43:07Z</time>
      </trkpt>
      <trkpt lat="47.2997" lon="4.99159">
        <ele>367</ele>
        <time>2014-10-03T10:43:14Z</time>
      </trkpt>
      <trkpt lat="47.29971" lon="4.99156">
        <ele>369</ele>
        <time>2014-10-03T10:43:15Z</time>
      </trkpt>
      <trkpt lat="47.29981" lon="4.99121">
        <ele>371</ele>
        <time>2014-10-03T10:43:24Z</time>
      </trkpt>
      <trkpt lat="47.29984" lon="4.9911">
        <ele>372</ele>
        <time>2014-10-03T10:43:27Z</time>
      </trkpt>
      <trkpt lat="47.29987" lon="4.99086">
        <ele>374</ele>
        <time>2014-10-03T10:43:34Z</time>
      </trkpt>
      <trkpt lat="47.29988" lon="4.9907">
        <ele>374</ele>
        <time>2014-10-03T10:43:39Z</time>
      </trkpt>
      <trkpt lat="47.29981" lon="4.99055">
        <ele>371</ele>
        <time>2014-10-03T10:43:45Z</time>
      </trkpt>
      <trkpt lat="47.29965" lon="4.99048">
        <ele>369</ele>
        <time>2014-10-03T10:43:51Z</time>
      </trkpt>
      <trkpt lat="47.29947" lon="4.99044">
        <ele>369</ele>
        <time>2014-10-03T10:43:57Z</time>
      </trkpt>
      <trkpt lat="47.29928" lon="4.9904">
        <ele>368</ele>
        <time>2014-10-03T10:44:04Z</time>
      </trkpt>
      <trkpt lat="47.29913" lon="4.99036">
        <ele>367</ele>
        <time>2014-10-03T10:44:10Z</time>
      </trkpt>
      <trkpt lat="47.29909" lon="4.99019">
        <ele>372</ele>
        <time>2014-10-03T10:44:15Z</time>
      </trkpt>
      <trkpt lat="47.2991" lon="4.99001">
        <ele>373</ele>
        <time>2014-10-03T10:44:21Z</time>
      </trkpt>
      <trkpt lat="47.29909" lon="4.98979">
        <ele>372</ele>
        <time>2014-10-03T10:44:28Z</time>
      </trkpt>
      <trkpt lat="47.29914" lon="4.98966">
        <ele>371</ele>
        <time>2014-10-03T10:44:33Z</time>
      </trkpt>
      <trkpt lat="47.29912" lon="4.98941">
        <ele>374</ele>
        <time>2014-10-03T10:44:41Z</time>
      </trkpt>
      <trkpt lat="47.29913" lon="4.9891">
        <ele>374</ele>
        <time>2014-10-03T10:44:49Z</time>
      </trkpt>
      <trkpt lat="47.29917" lon="4.98899">
        <ele>373</ele>
        <time>2014-10-03T10:44:52Z</time>
      </trkpt>
      <trkpt lat="47.29921" lon="4.98878">
        <ele>373</ele>
        <time>2014-10-03T10:44:58Z</time>
      </trkpt>
      <trkpt lat="47.29922" lon="4.98858">
        <ele>373</ele>
        <time>2014-10-03T10:45:03Z</time>
      </trkpt>
      <trkpt lat="47.29919" lon="4.98836">
        <ele>373</ele>
        <time>2014-10-03T10:45:09Z</time>
      </trkpt>
      <trkpt lat="47.29913" lon="4.98815">
        <ele>374</ele>
        <time>2014-10-03T10:45:15Z</time>
      </trkpt>
      <trkpt lat="47.2991" lon="4.98777">
        <ele>376</ele>
        <time>2014-10-03T10:45:25Z</time>
      </trkpt>
      <trkpt lat="47.29909" lon="4.9877">
        <ele>376</ele>
        <time>2014-10-03T10:45:27Z</time>
      </trkpt>
      <trkpt lat="47.29904" lon="4.98744">
        <ele>378</ele>
        <time>2014-10-03T10:45:34Z</time>
      </trkpt>
      <trkpt lat="47.29895" lon="4.98707">
        <ele>380</ele>
        <time>2014-10-03T10:45:44Z</time>
      </trkpt>
      <trkpt lat="47.29893" lon="4.98704">
        <ele>380</ele>
        <time>2014-10-03T10:45:45Z</time>
      </trkpt>
      <trkpt lat="47.29889" lon="4.9868">
        <ele>380</ele>
        <time>2014-10-03T10:45:51Z</time>
      </trkpt>
      <trkpt lat="47.29887" lon="4.98659">
        <ele>379</ele>
        <time>2014-10-03T10:45:57Z</time>
      </trkpt>
      <trkpt lat="47.29878" lon="4.98627">
        <ele>377</ele>
        <time>2014-10-03T10:46:07Z</time>
      </trkpt>
      <trkpt lat="47.29875" lon="4.98621">
        <ele>378</ele>
        <time>2014-10-03T10:46:09Z</time>
      </trkpt>
      <trkpt lat="47.2986" lon="4.98598">
        <ele>374</ele>
        <time>2014-10-03T10:46:17Z</time>
      </trkpt>
      <trkpt lat="47.29845" lon="4.98572">
        <ele>373</ele>
        <time>2014-10-03T10:46:26Z</time>
      </trkpt>
      <trkpt lat="47.29835" lon="4.98554">
        <ele>371</ele>
        <time>2014-10-03T10:46:32Z</time>
      </trkpt>
      <trkpt lat="47.29834" lon="4.98551">
        <ele>371</ele>
        <time>2014-10-03T10:46:33Z</time>
      </trkpt>
      <trkpt lat="47.29827" lon="4.9853">
        <ele>374</ele>
        <time>2014-10-03T10:46:39Z</time>
      </trkpt>
      <trkpt lat="47.29817" lon="4.98509">
        <ele>372</ele>
        <time>2014-10-03T10:46:46Z</time>
      </trkpt>
      <trkpt lat="47.29809" lon="4.98495">
        <ele>370</ele>
        <time>2014-10-03T10:46:51Z</time>
      </trkpt>
      <trkpt lat="47.29801" lon="4.98475">
        <ele>373</ele>
        <time>2014-10-03T10:46:57Z</time>
      </trkpt>
      <trkpt lat="47.29795" lon="4.98456">
        <ele>376</ele>
        <time>2014-10-03T10:47:03Z</time>
      </trkpt>
      <trkpt lat="47.29787" lon="4.98435">
        <ele>375</ele>
        <time>2014-10-03T10:47:10Z</time>
      </trkpt>
      <trkpt lat="47.29782" lon="4.98419">
        <ele>374</ele>
        <time>2014-10-03T10:47:15Z</time>
      </trkpt>
      <trkpt lat="47.2977" lon="4.98394">
        <ele>377</ele>
        <time>2014-10-03T10:47:23Z</time>
      </trkpt>
      <trkpt lat="47.29755" lon="4.98366">
        <ele>379</ele>
        <time>2014-10-03T10:47:32Z</time>
      </trkpt>
      <trkpt lat="47.29747" lon="4.98352">
        <ele>377</ele>
        <time>2014-10-03T10:47:37Z</time>
      </trkpt>
      <trkpt lat="47.29744" lon="4.98347">
        <ele>376</ele>
        <time>2014-10-03T10:47:39Z</time>
      </trkpt>
      <trkpt lat="47.29736" lon="4.98329">
        <ele>377</ele>
        <time>2014-10-03T10:47:45Z</time>
      </trkpt>
      <trkpt lat="47.29729" lon="4.9831">
        <ele>379</ele>
        <time>2014-10-03T10:47:51Z</time>
      </trkpt>
      <trkpt lat="47.29717" lon="4.9829">
        <ele>380</ele>
        <time>2014-10-03T10:47:58Z</time>
      </trkpt>
      <trkpt lat="47.29708" lon="4.98274">
        <ele>381</ele>
        <time>2014-10-03T10:48:03Z</time>
      </trkpt>
      <trkpt lat="47.29693" lon="4.9825">
        <ele>383</ele>
        <time>2014-10-03T10:48:11Z</time>
      </trkpt>
      <trkpt lat="47.29684" lon="4.98235">
        <ele>381</ele>
        <time>2014-10-03T10:48:16Z</time>
      </trkpt>
      <trkpt lat="47.29673" lon="4.98213">
        <ele>382</ele>
        <time>2014-10-03T10:48:23Z</time>
      </trkpt>
      <trkpt lat="47.29669" lon="4.9819">
        <ele>384</ele>
        <time>2014-10-03T10:48:29Z</time>
      </trkpt>
      <trkpt lat="47.29673" lon="4.98159">
        <ele>387</ele>
        <time>2014-10-03T10:48:36Z</time>
      </trkpt>
      <trkpt lat="47.29678" lon="4.98133">
        <ele>389</ele>
        <time>2014-10-03T10:48:42Z</time>
      </trkpt>
      <trkpt lat="47.2968" lon="4.98115">
        <ele>390</ele>
        <time>2014-10-03T10:48:46Z</time>
      </trkpt>
      <trkpt lat="47.29685" lon="4.98095">
        <ele>390</ele>
        <time>2014-10-03T10:48:51Z</time>
      </trkpt>
      <trkpt lat="47.29692" lon="4.98061">
        <ele>390</ele>
        <time>2014-10-03T10:49:00Z</time>
      </trkpt>
      <trkpt lat="47.29695" lon="4.9805">
        <ele>391</ele>
        <time>2014-10-03T10:49:03Z</time>
      </trkpt>
      <trkpt lat="47.29701" lon="4.98028">
        <ele>393</ele>
        <time>2014-10-03T10:49:09Z</time>
      </trkpt>
      <trkpt lat="47.29705" lon="4.98003">
        <ele>393</ele>
        <time>2014-10-03T10:49:16Z</time>
      </trkpt>
      <trkpt lat="47.29709" lon="4.97983">
        <ele>395</ele>
        <time>2014-10-03T10:49:21Z</time>
      </trkpt>
      <trkpt lat="47.29716" lon="4.97949">
        <ele>396</ele>
        <time>2014-10-03T10:49:30Z</time>
      </trkpt>
      <trkpt lat="47.29719" lon="4.97928">
        <ele>397</ele>
        <time>2014-10-03T10:49:35Z</time>
      </trkpt>
      <trkpt lat="47.29721" lon="4.97912">
        <ele>396</ele>
        <time>2014-10-03T10:49:39Z</time>
      </trkpt>
      <trkpt lat="47.29726" lon="4.97889">
        <ele>395</ele>
        <time>2014-10-03T10:49:45Z</time>
      </trkpt>
      <trkpt lat="47.29731" lon="4.97864">
        <ele>393</ele>
        <time>2014-10-03T10:49:51Z</time>
      </trkpt>
      <trkpt lat="47.29739" lon="4.97836">
        <ele>392</ele>
        <time>2014-10-03T10:49:58Z</time>
      </trkpt>
      <trkpt lat="47.29743" lon="4.97806">
        <ele>390</ele>
        <time>2014-10-03T10:50:05Z</time>
      </trkpt>
      <trkpt lat="47.29748" lon="4.97776">
        <ele>391</ele>
        <time>2014-10-03T10:50:12Z</time>
      </trkpt>
      <trkpt lat="47.29751" lon="4.97763">
        <ele>393</ele>
        <time>2014-10-03T10:50:15Z</time>
      </trkpt>
      <trkpt lat="47.29757" lon="4.97739">
        <ele>394</ele>
        <time>2014-10-03T10:50:21Z</time>
      </trkpt>
      <trkpt lat="47.29766" lon="4.97705">
        <ele>393</ele>
        <time>2014-10-03T10:50:30Z</time>
      </trkpt>
      <trkpt lat="47.2977" lon="4.97682">
        <ele>392</ele>
        <time>2014-10-03T10:50:36Z</time>
      </trkpt>
      <trkpt lat="47.29773" lon="4.97671">
        <ele>390</ele>
        <time>2014-10-03T10:50:39Z</time>
      </trkpt>
      <trkpt lat="47.29779" lon="4.97645">
        <ele>390</ele>
        <time>2014-10-03T10:50:46Z</time>
      </trkpt>
      <trkpt lat="47.29788" lon="4.97618">
        <ele>390</ele>
        <time>2014-10-03T10:50:54Z</time>
      </trkpt>
      <trkpt lat="47.2979" lon="4.97606">
        <ele>388</ele>
        <time>2014-10-03T10:50:57Z</time>
      </trkpt>
      <trkpt lat="47.29793" lon="4.97575">
        <ele>389</ele>
        <time>2014-10-03T10:51:04Z</time>
      </trkpt>
      <trkpt lat="47.29798" lon="4.97549">
        <ele>389</ele>
        <time>2014-10-03T10:51:10Z</time>
      </trkpt>
      <trkpt lat="47.29802" lon="4.97528">
        <ele>388</ele>
        <time>2014-10-03T10:51:15Z</time>
      </trkpt>
      <trkpt lat="47.2981" lon="4.97497">
        <ele>387</ele>
        <time>2014-10-03T10:51:23Z</time>
      </trkpt>
      <trkpt lat="47.29814" lon="4.97482">
        <ele>387</ele>
        <time>2014-10-03T10:51:27Z</time>
      </trkpt>
      <trkpt lat="47.2982" lon="4.97443">
        <ele>388</ele>
        <time>2014-10-03T10:51:36Z</time>
      </trkpt>
      <trkpt lat="47.29822" lon="4.97431">
        <ele>390</ele>
        <time>2014-10-03T10:51:39Z</time>
      </trkpt>
      <trkpt lat="47.29829" lon="4.97399">
        <ele>392</ele>
        <time>2014-10-03T10:51:47Z</time>
      </trkpt>
      <trkpt lat="47.29833" lon="4.97382">
        <ele>392</ele>
        <time>2014-10-03T10:51:51Z</time>
      </trkpt>
      <trkpt lat="47.29837" lon="4.97356">
        <ele>391</ele>
        <time>2014-10-03T10:51:57Z</time>
      </trkpt>
      <trkpt lat="47.29841" lon="4.97319">
        <ele>393</ele>
        <time>2014-10-03T10:52:06Z</time>
      </trkpt>
      <trkpt lat="47.29844" lon="4.97307">
        <ele>395</ele>
        <time>2014-10-03T10:52:09Z</time>
      </trkpt>
      <trkpt lat="47.29837" lon="4.97287">
        <ele>393</ele>
        <time>2014-10-03T10:52:16Z</time>
      </trkpt>
      <trkpt lat="47.29828" lon="4.97266">
        <ele>394</ele>
        <time>2014-10-03T10:52:25Z</time>
      </trkpt>
      <trkpt lat="47.29823" lon="4.97261">
        <ele>392</ele>
        <time>2014-10-03T10:52:27Z</time>
      </trkpt>
      <trkpt lat="47.2981" lon="4.97245">
        <ele>392</ele>
        <time>2014-10-03T10:52:33Z</time>
      </trkpt>
      <trkpt lat="47.29798" lon="4.97221">
        <ele>389</ele>
        <time>2014-10-03T10:52:40Z</time>
      </trkpt>
      <trkpt lat="47.2978" lon="4.97199">
        <ele>386</ele>
        <time>2014-10-03T10:52:48Z</time>
      </trkpt>
      <trkpt lat="47.29772" lon="4.97192">
        <ele>384</ele>
        <time>2014-10-03T10:52:51Z</time>
      </trkpt>
      <trkpt lat="47.29756" lon="4.97185">
        <ele>385</ele>
        <time>2014-10-03T10:52:57Z</time>
      </trkpt>
      <trkpt lat="47.29736" lon="4.97179">
        <ele>385</ele>
        <time>2014-10-03T10:53:04Z</time>
      </trkpt>
      <trkpt lat="47.2971" lon="4.97189">
        <ele>378</ele>
        <time>2014-10-03T10:53:14Z</time>
      </trkpt>
      <trkpt lat="47.29707" lon="4.9719">
        <ele>378</ele>
        <time>2014-10-03T10:53:15Z</time>
      </trkpt>
      <trkpt lat="47.2969" lon="4.97206">
        <ele>376</ele>
        <time>2014-10-03T10:53:23Z</time>
      </trkpt>
      <trkpt lat="47.29669" lon="4.97223">
        <ele>376</ele>
        <time>2014-10-03T10:53:32Z</time>
      </trkpt>
      <trkpt lat="47.29666" lon="4.97223">
        <ele>377</ele>
        <time>2014-10-03T10:53:33Z</time>
      </trkpt>
      <trkpt lat="47.29642" lon="4.97223">
        <ele>377</ele>
        <time>2014-10-03T10:53:40Z</time>
      </trkpt>
      <trkpt lat="47.29612" lon="4.97219">
        <ele>378</ele>
        <time>2014-10-03T10:53:50Z</time>
      </trkpt>
      <trkpt lat="47.29609" lon="4.9722">
        <ele>379</ele>
        <time>2014-10-03T10:53:51Z</time>
      </trkpt>
      <trkpt lat="47.29591" lon="4.97226">
        <ele>376</ele>
        <time>2014-10-03T10:53:58Z</time>
      </trkpt>
      <trkpt lat="47.2958" lon="4.97239">
        <ele>376</ele>
        <time>2014-10-03T10:54:03Z</time>
      </trkpt>
      <trkpt lat="47.29564" lon="4.97268">
        <ele>380</ele>
        <time>2014-10-03T10:54:12Z</time>
      </trkpt>
      <trkpt lat="47.29558" lon="4.97278">
        <ele>379</ele>
        <time>2014-10-03T10:54:15Z</time>
      </trkpt>
      <trkpt lat="47.29546" lon="4.97297">
        <ele>379</ele>
        <time>2014-10-03T10:54:21Z</time>
      </trkpt>
      <trkpt lat="47.29522" lon="4.97323">
        <ele>379</ele>
        <time>2014-10-03T10:54:31Z</time>
      </trkpt>
      <trkpt lat="47.29516" lon="4.97332">
        <ele>379</ele>
        <time>2014-10-03T10:54:34Z</time>
      </trkpt>
      <trkpt lat="47.29496" lon="4.97358">
        <ele>382</ele>
        <time>2014-10-03T10:54:44Z</time>
      </trkpt>
      <trkpt lat="47.29485" lon="4.97359">
        <ele>381</ele>
        <time>2014-10-03T10:54:48Z</time>
      </trkpt>
      <trkpt lat="47.29475" lon="4.97364">
        <ele>378</ele>
        <time>2014-10-03T10:54:52Z</time>
      </trkpt>
      <trkpt lat="47.29459" lon="4.97387">
        <ele>380</ele>
        <time>2014-10-03T10:55:00Z</time>
      </trkpt>
      <trkpt lat="47.2945" lon="4.97395">
        <ele>379</ele>
        <time>2014-10-03T10:55:04Z</time>
      </trkpt>
      <trkpt lat="47.29437" lon="4.97399">
        <ele>382</ele>
        <time>2014-10-03T10:55:09Z</time>
      </trkpt>
      <trkpt lat="47.29408" lon="4.97405">
        <ele>381</ele>
        <time>2014-10-03T10:55:20Z</time>
      </trkpt>
      <trkpt lat="47.29406" lon="4.97408">
        <ele>380</ele>
        <time>2014-10-03T10:55:21Z</time>
      </trkpt>
      <trkpt lat="47.29396" lon="4.9743">
        <ele>380</ele>
        <time>2014-10-03T10:55:27Z</time>
      </trkpt>
      <trkpt lat="47.29382" lon="4.97447">
        <ele>379</ele>
        <time>2014-10-03T10:55:33Z</time>
      </trkpt>
      <trkpt lat="47.29371" lon="4.97466">
        <ele>378</ele>
        <time>2014-10-03T10:55:39Z</time>
      </trkpt>
      <trkpt lat="47.29361" lon="4.97489">
        <ele>378</ele>
        <time>2014-10-03T10:55:45Z</time>
      </trkpt>
      <trkpt lat="47.29357" lon="4.97514">
        <ele>376</ele>
        <time>2014-10-03T10:55:51Z</time>
      </trkpt>
      <trkpt lat="47.29352" lon="4.9754">
        <ele>374</ele>
        <time>2014-10-03T10:55:57Z</time>
      </trkpt>
      <trkpt lat="47.29344" lon="4.97575">
        <ele>375</ele>
        <time>2014-10-03T10:56:05Z</time>
      </trkpt>
      <trkpt lat="47.29341" lon="4.97605">
        <ele>376</ele>
        <time>2014-10-03T10:56:12Z</time>
      </trkpt>
      <trkpt lat="47.29344" lon="4.97623">
        <ele>375</ele>
        <time>2014-10-03T10:56:16Z</time>
      </trkpt>
      <trkpt lat="47.29352" lon="4.97642">
        <ele>375</ele>
        <time>2014-10-03T10:56:21Z</time>
      </trkpt>
      <trkpt lat="47.29356" lon="4.97668">
        <ele>374</ele>
        <time>2014-10-03T10:56:27Z</time>
      </trkpt>
      <trkpt lat="47.2936" lon="4.97695">
        <ele>374</ele>
        <time>2014-10-03T10:56:33Z</time>
      </trkpt>
      <trkpt lat="47.29368" lon="4.9772">
        <ele>372</ele>
        <time>2014-10-03T10:56:39Z</time>
      </trkpt>
      <trkpt lat="47.29378" lon="4.97754">
        <ele>372</ele>
        <time>2014-10-03T10:56:47Z</time>
      </trkpt>
      <trkpt lat="47.29375" lon="4.9777">
        <ele>372</ele>
        <time>2014-10-03T10:56:51Z</time>
      </trkpt>
      <trkpt lat="47.29376" lon="4.97808">
        <ele>371</ele>
        <time>2014-10-03T10:57:01Z</time>
      </trkpt>
      <trkpt lat="47.29377" lon="4.97815">
        <ele>370</ele>
        <time>2014-10-03T10:57:03Z</time>
      </trkpt>
      <trkpt lat="47.2937" lon="4.97837">
        <ele>366</ele>
        <time>2014-10-03T10:57:09Z</time>
      </trkpt>
      <trkpt lat="47.29368" lon="4.97854">
        <ele>366</ele>
        <time>2014-10-03T10:57:15Z</time>
      </trkpt>
      <trkpt lat="47.29342" lon="4.97861">
        <ele>364</ele>
        <time>2014-10-03T10:57:26Z</time>
      </trkpt>
      <trkpt lat="47.2934" lon="4.97861">
        <ele>364</ele>
        <time>2014-10-03T10:57:27Z</time>
      </trkpt>
      <trkpt lat="47.29314" lon="4.9786">
        <ele>364</ele>
        <time>2014-10-03T10:57:36Z</time>
      </trkpt>
      <trkpt lat="47.29305" lon="4.97861">
        <ele>363</ele>
        <time>2014-10-03T10:57:39Z</time>
      </trkpt>
      <trkpt lat="47.2929" lon="4.97869">
        <ele>363</ele>
        <time>2014-10-03T10:57:45Z</time>
      </trkpt>
      <trkpt lat="47.29276" lon="4.97882">
        <ele>364</ele>
        <time>2014-10-03T10:57:51Z</time>
      </trkpt>
      <trkpt lat="47.29251" lon="4.97904">
        <ele>369</ele>
        <time>2014-10-03T10:58:02Z</time>
      </trkpt>
      <trkpt lat="47.29248" lon="4.9791">
        <ele>369</ele>
        <time>2014-10-03T10:58:04Z</time>
      </trkpt>
      <trkpt lat="47.29243" lon="4.9793">
        <ele>371</ele>
        <time>2014-10-03T10:58:09Z</time>
      </trkpt>
      <trkpt lat="47.29252" lon="4.97957">
        <ele>374</ele>
        <time>2014-10-03T10:58:16Z</time>
      </trkpt>
      <trkpt lat="47.29265" lon="4.97978">
        <ele>374</ele>
        <time>2014-10-03T10:58:22Z</time>
      </trkpt>
      <trkpt lat="47.2927" lon="4.97996">
        <ele>373</ele>
        <time>2014-10-03T10:58:27Z</time>
      </trkpt>
      <trkpt lat="47.29283" lon="4.98026">
        <ele>372</ele>
        <time>2014-10-03T10:58:36Z</time>
      </trkpt>
      <trkpt lat="47.29288" lon="4.98035">
        <ele>373</ele>
        <time>2014-10-03T10:58:39Z</time>
      </trkpt>
      <trkpt lat="47.29297" lon="4.98056">
        <ele>374</ele>
        <time>2014-10-03T10:58:45Z</time>
      </trkpt>
      <trkpt lat="47.29311" lon="4.98097">
        <ele>371</ele>
        <time>2014-10-03T10:58:56Z</time>
      </trkpt>
      <trkpt lat="47.29313" lon="4.98101">
        <ele>371</ele>
        <time>2014-10-03T10:58:57Z</time>
      </trkpt>
      <trkpt lat="47.29327" lon="4.98119">
        <ele>372</ele>
        <time>2014-10-03T10:59:03Z</time>
      </trkpt>
      <trkpt lat="47.29339" lon="4.98139">
        <ele>373</ele>
        <time>2014-10-03T10:59:09Z</time>
      </trkpt>
      <trkpt lat="47.2936" lon="4.98161">
        <ele>374</ele>
        <time>2014-10-03T10:59:18Z</time>
      </trkpt>
      <trkpt lat="47.29365" lon="4.98166">
        <ele>374</ele>
        <time>2014-10-03T10:59:21Z</time>
      </trkpt>
      <trkpt lat="47.2937" lon="4.98183">
        <ele>372</ele>
        <time>2014-10-03T10:59:27Z</time>
      </trkpt>
      <trkpt lat="47.29375" lon="4.98206">
        <ele>371</ele>
        <time>2014-10-03T10:59:33Z</time>
      </trkpt>
      <trkpt lat="47.29389" lon="4.98223">
        <ele>371</ele>
        <time>2014-10-03T10:59:39Z</time>
      </trkpt>
      <trkpt lat="47.29402" lon="4.98237">
        <ele>372</ele>
        <time>2014-10-03T10:59:45Z</time>
      </trkpt>
      <trkpt lat="47.29412" lon="4.98251">
        <ele>372</ele>
        <time>2014-10-03T10:59:51Z</time>
      </trkpt>
      <trkpt lat="47.29419" lon="4.98278">
        <ele>370</ele>
        <time>2014-10-03T10:59:59Z</time>
      </trkpt>
      <trkpt lat="47.29431" lon="4.98287">
        <ele>370</ele>
        <time>2014-10-03T11:00:04Z</time>
      </trkpt>
      <trkpt lat="47.29443" lon="4.98289">
        <ele>369</ele>
        <time>2014-10-03T11:00:09Z</time>
      </trkpt>
      <trkpt lat="47.29454" lon="4.983">
        <ele>369</ele>
        <time>2014-10-03T11:00:15Z</time>
      </trkpt>
      <trkpt lat="47.29465" lon="4.9832">
        <ele>370</ele>
        <time>2014-10-03T11:00:22Z</time>
      </trkpt>
      <trkpt lat="47.29481" lon="4.98328">
        <ele>373</ele>
        <time>2014-10-03T11:00:29Z</time>
      </trkpt>
      <trkpt lat="47.29489" lon="4.98333">
        <ele>374</ele>
        <time>2014-10-03T11:00:33Z</time>
      </trkpt>
      <trkpt lat="47.29512" lon="4.98349">
        <ele>373</ele>
        <time>2014-10-03T11:00:44Z</time>
      </trkpt>
      <trkpt lat="47.29515" lon="4.9835">
        <ele>375</ele>
        <time>2014-10-03T11:00:45Z</time>
      </trkpt>
      <trkpt lat="47.29526" lon="4.9836">
        <ele>374</ele>
        <time>2014-10-03T11:00:51Z</time>
      </trkpt>
      <trkpt lat="47.29537" lon="4.98373">
        <ele>373</ele>
        <time>2014-10-03T11:00:57Z</time>
      </trkpt>
      <trkpt lat="47.29538" lon="4.98392">
        <ele>375</ele>
        <time>2014-10-03T11:01:03Z</time>
      </trkpt>
      <trkpt lat="47.29545" lon="4.9841">
        <ele>374</ele>
        <time>2014-10-03T11:01:10Z</time>
      </trkpt>
      <trkpt lat="47.29558" lon="4.98411">
        <ele>375</ele>
        <time>2014-10-03T11:01:15Z</time>
      </trkpt>
      <trkpt lat="47.29582" lon="4.98428">
        <ele>376</ele>
        <time>2014-10-03T11:01:25Z</time>
      </trkpt>
      <trkpt lat="47.2959" lon="4.98437">
        <ele>377</ele>
        <time>2014-10-03T11:01:29Z</time>
      </trkpt>
      <trkpt lat="47.296" lon="4.98442">
        <ele>379</ele>
        <time>2014-10-03T11:01:33Z</time>
      </trkpt>
      <trkpt lat="47.29599" lon="4.98454">
        <ele>381</ele>
        <time>2014-10-03T11:01:39Z</time>
      </trkpt>
      <trkpt lat="47.29587" lon="4.98471">
        <ele>380</ele>
        <time>2014-10-03T11:01:45Z</time>
      </trkpt>
      <trkpt lat="47.29574" lon="4.98486">
        <ele>381</ele>
        <time>2014-10-03T11:01:51Z</time>
      </trkpt>
      <trkpt lat="47.29556" lon="4.98498">
        <ele>380</ele>
        <time>2014-10-03T11:01:58Z</time>
      </trkpt>
      <trkpt lat="47.29537" lon="4.98509">
        <ele>380</ele>
        <time>2014-10-03T11:02:05Z</time>
      </trkpt>
      <trkpt lat="47.29525" lon="4.98516">
        <ele>378</ele>
        <time>2014-10-03T11:02:10Z</time>
      </trkpt>
      <trkpt lat="47.29512" lon="4.98523">
        <ele>376</ele>
        <time>2014-10-03T11:02:15Z</time>
      </trkpt>
      <trkpt lat="47.29488" lon="4.98534">
        <ele>378</ele>
        <time>2014-10-03T11:02:24Z</time>
      </trkpt>
      <trkpt lat="47.29468" lon="4.98545">
        <ele>376</ele>
        <time>2014-10-03T11:02:31Z</time>
      </trkpt>
      <trkpt lat="47.29458" lon="4.98551">
        <ele>376</ele>
        <time>2014-10-03T11:02:35Z</time>
      </trkpt>
      <trkpt lat="47.29444" lon="4.98558">
        <ele>374</ele>
        <time>2014-10-03T11:02:40Z</time>
      </trkpt>
      <trkpt lat="47.29428" lon="4.98565">
        <ele>374</ele>
        <time>2014-10-03T11:02:46Z</time>
      </trkpt>
      <trkpt lat="47.29415" lon="4.98572">
        <ele>373</ele>
        <time>2014-10-03T11:02:51Z</time>
      </trkpt>
      <trkpt lat="47.29396" lon="4.98582">
        <ele>376</ele>
        <time>2014-10-03T11:02:58Z</time>
      </trkpt>
      <trkpt lat="47.29368" lon="4.986">
        <ele>375</ele>
        <time>2014-10-03T11:03:08Z</time>
      </trkpt>
      <trkpt lat="47.29351" lon="4.98609">
        <ele>375</ele>
        <time>2014-10-03T11:03:14Z</time>
      </trkpt>
      <trkpt lat="47.29346" lon="4.98611">
        <ele>375</ele>
        <time>2014-10-03T11:03:16Z</time>
      </trkpt>
      <trkpt lat="47.29332" lon="4.98618">
        <ele>376</ele>
        <time>2014-10-03T11:03:21Z</time>
      </trkpt>
      <trkpt lat="47.29303" lon="4.98634">
        <ele>374</ele>
        <time>2014-10-03T11:03:32Z</time>
      </trkpt>
      <trkpt lat="47.293" lon="4.98636">
        <ele>374</ele>
        <time>2014-10-03T11:03:33Z</time>
      </trkpt>
      <trkpt lat="47.29283" lon="4.98645">
        <ele>372</ele>
        <time>2014-10-03T11:03:39Z</time>
      </trkpt>
      <trkpt lat="47.29258" lon="4.98665">
        <ele>366</ele>
        <time>2014-10-03T11:03:50Z</time>
      </trkpt>
      <trkpt lat="47.29257" lon="4.98679">
        <ele>366</ele>
        <time>2014-10-03T11:03:54Z</time>
      </trkpt>
      <trkpt lat="47.29278" lon="4.9868">
        <ele>367</ele>
        <time>2014-10-03T11:04:01Z</time>
      </trkpt>
      <trkpt lat="47.29284" lon="4.98681">
        <ele>367</ele>
        <time>2014-10-03T11:04:03Z</time>
      </trkpt>
      <trkpt lat="47.29306" lon="4.98688">
        <ele>367</ele>
        <time>2014-10-03T11:04:11Z</time>
      </trkpt>
      <trkpt lat="47.29318" lon="4.98693">
        <ele>369</ele>
        <time>2014-10-03T11:04:16Z</time>
      </trkpt>
      <trkpt lat="47.29337" lon="4.98702">
        <ele>370</ele>
        <time>2014-10-03T11:04:24Z</time>
      </trkpt>
      <trkpt lat="47.29349" lon="4.98709">
        <ele>368</ele>
        <time>2014-10-03T11:04:29Z</time>
      </trkpt>
      <trkpt lat="47.29364" lon="4.98717">
        <ele>367</ele>
        <time>2014-10-03T11:04:35Z</time>
      </trkpt>
      <trkpt lat="47.29384" lon="4.98726">
        <ele>369</ele>
        <time>2014-10-03T11:04:42Z</time>
      </trkpt>
      <trkpt lat="47.29396" lon="4.98735">
        <ele>371</ele>
        <time>2014-10-03T11:04:47Z</time>
      </trkpt>
      <trkpt lat="47.29407" lon="4.98741">
        <ele>370</ele>
        <time>2014-10-03T11:04:51Z</time>
      </trkpt>
      <trkpt lat="47.29436" lon="4.98759">
        <ele>370</ele>
        <time>2014-10-03T11:05:02Z</time>
      </trkpt>
      <trkpt lat="47.29441" lon="4.98762">
        <ele>369</ele>
        <time>2014-10-03T11:05:04Z</time>
      </trkpt>
      <trkpt lat="47.29463" lon="4.98775">
        <ele>369</ele>
        <time>2014-10-03T11:05:13Z</time>
      </trkpt>
      <trkpt lat="47.29468" lon="4.98777">
        <ele>371</ele>
        <time>2014-10-03T11:05:15Z</time>
      </trkpt>
      <trkpt lat="47.29481" lon="4.98782">
        <ele>371</ele>
        <time>2014-10-03T11:05:21Z</time>
      </trkpt>
      <trkpt lat="47.29491" lon="4.98785">
        <ele>371</ele>
        <time>2014-10-03T11:05:27Z</time>
      </trkpt>
      <trkpt lat="47.29512" lon="4.98793">
        <ele>372</ele>
        <time>2014-10-03T11:05:35Z</time>
      </trkpt>
      <trkpt lat="47.29522" lon="4.98798">
        <ele>372</ele>
        <time>2014-10-03T11:05:39Z</time>
      </trkpt>
      <trkpt lat="47.29539" lon="4.98807">
        <ele>373</ele>
        <time>2014-10-03T11:05:46Z</time>
      </trkpt>
      <trkpt lat="47.2955" lon="4.98813">
        <ele>376</ele>
        <time>2014-10-03T11:05:51Z</time>
      </trkpt>
      <trkpt lat="47.29565" lon="4.98819">
        <ele>378</ele>
        <time>2014-10-03T11:05:57Z</time>
      </trkpt>
      <trkpt lat="47.29578" lon="4.98827">
        <ele>379</ele>
        <time>2014-10-03T11:06:03Z</time>
      </trkpt>
      <trkpt lat="47.29593" lon="4.98835">
        <ele>380</ele>
        <time>2014-10-03T11:06:09Z</time>
      </trkpt>
      <trkpt lat="47.29604" lon="4.98844">
        <ele>379</ele>
        <time>2014-10-03T11:06:15Z</time>
      </trkpt>
      <trkpt lat="47.29623" lon="4.98852">
        <ele>380</ele>
        <time>2014-10-03T11:06:23Z</time>
      </trkpt>
      <trkpt lat="47.29631" lon="4.98858">
        <ele>379</ele>
        <time>2014-10-03T11:06:27Z</time>
      </trkpt>
      <trkpt lat="47.29643" lon="4.98866">
        <ele>380</ele>
        <time>2014-10-03T11:06:33Z</time>
      </trkpt>
      <trkpt lat="47.29661" lon="4.98868">
        <ele>381</ele>
        <time>2014-10-03T11:06:40Z</time>
      </trkpt>
      <trkpt lat="47.29672" lon="4.98872">
        <ele>381</ele>
        <time>2014-10-03T11:06:45Z</time>
      </trkpt>
      <trkpt lat="47.2968" lon="4.9889">
        <ele>382</ele>
        <time>2014-10-03T11:06:51Z</time>
      </trkpt>
      <trkpt lat="47.29689" lon="4.9891">
        <ele>382</ele>
        <time>2014-10-03T11:06:57Z</time>
      </trkpt>
      <trkpt lat="47.29695" lon="4.98935">
        <ele>380</ele>
        <time>2014-10-03T11:07:04Z</time>
      </trkpt>
      <trkpt lat="47.297" lon="4.98957">
        <ele>378</ele>
        <time>2014-10-03T11:07:10Z</time>
      </trkpt>
      <trkpt lat="47.29702" lon="4.98976">
        <ele>377</ele>
        <time>2014-10-03T11:07:15Z</time>
      </trkpt>
      <trkpt lat="47.29706" lon="4.98998">
        <ele>376</ele>
        <time>2014-10-03T11:07:21Z</time>
      </trkpt>
      <trkpt lat="47.29717" lon="4.9902">
        <ele>376</ele>
        <time>2014-10-03T11:07:28Z</time>
      </trkpt>
      <trkpt lat="47.29727" lon="4.99034">
        <ele>379</ele>
        <time>2014-10-03T11:07:33Z</time>
      </trkpt>
      <trkpt lat="47.29735" lon="4.99053">
        <ele>375</ele>
        <time>2014-10-03T11:07:39Z</time>
      </trkpt>
      <trkpt lat="47.29755" lon="4.99075">
        <ele>374</ele>
        <time>2014-10-03T11:07:49Z</time>
      </trkpt>
      <trkpt lat="47.29757" lon="4.99081">
        <ele>374</ele>
        <time>2014-10-03T11:07:51Z</time>
      </trkpt>
      <trkpt lat="47.29753" lon="4.99102">
        <ele>374</ele>
        <time>2014-10-03T11:07:57Z</time>
      </trkpt>
      <trkpt lat="47.29745" lon="4.9912">
        <ele>372</ele>
        <time>2014-10-03T11:08:03Z</time>
      </trkpt>
      <trkpt lat="47.29727" lon="4.99147">
        <ele>371</ele>
        <time>2014-10-03T11:08:12Z</time>
      </trkpt>
      <trkpt lat="47.2972" lon="4.99168">
        <ele>371</ele>
        <time>2014-10-03T11:08:18Z</time>
      </trkpt>
      <trkpt lat="47.29712" lon="4.99183">
        <ele>371</ele>
        <time>2014-10-03T11:08:23Z</time>
      </trkpt>
      <trkpt lat="47.29704" lon="4.99205">
        <ele>370</ele>
        <time>2014-10-03T11:08:29Z</time>
      </trkpt>
      <trkpt lat="47.29699" lon="4.99221">
        <ele>369</ele>
        <time>2014-10-03T11:08:33Z</time>
      </trkpt>
      <trkpt lat="47.29683" lon="4.99254">
        <ele>371</ele>
        <time>2014-10-03T11:08:43Z</time>
      </trkpt>
      <trkpt lat="47.29673" lon="4.99269">
        <ele>368</ele>
        <time>2014-10-03T11:08:49Z</time>
      </trkpt>
      <trkpt lat="47.29668" lon="4.99277">
        <ele>370</ele>
        <time>2014-10-03T11:08:51Z</time>
      </trkpt>
      <trkpt lat="47.29659" lon="4.99297">
        <ele>367</ele>
        <time>2014-10-03T11:08:57Z</time>
      </trkpt>
      <trkpt lat="47.29647" lon="4.99315">
        <ele>368</ele>
        <time>2014-10-03T11:09:03Z</time>
      </trkpt>
      <trkpt lat="47.29636" lon="4.99333">
        <ele>366</ele>
        <time>2014-10-03T11:09:09Z</time>
      </trkpt>
      <trkpt lat="47.29624" lon="4.9935">
        <ele>368</ele>
        <time>2014-10-03T11:09:15Z</time>
      </trkpt>
      <trkpt lat="47.2961" lon="4.99356">
        <ele>365</ele>
        <time>2014-10-03T11:09:21Z</time>
      </trkpt>
      <trkpt lat="47.29599" lon="4.99348">
        <ele>364</ele>
        <time>2014-10-03T11:09:27Z</time>
      </trkpt>
      <trkpt lat="47.29589" lon="4.99358">
        <ele>362</ele>
        <time>2014-10-03T11:09:33Z</time>
      </trkpt>
      <trkpt lat="47.29577" lon="4.99372">
        <ele>357</ele>
        <time>2014-10-03T11:09:40Z</time>
      </trkpt>
      <trkpt lat="47.29562" lon="4.99383">
        <ele>358</ele>
        <time>2014-10-03T11:09:45Z</time>
      </trkpt>
      <trkpt lat="47.29543" lon="4.99389">
        <ele>356</ele>
        <time>2014-10-03T11:09:51Z</time>
      </trkpt>
      <trkpt lat="47.29525" lon="4.99395">
        <ele>354</ele>
        <time>2014-10-03T11:09:57Z</time>
      </trkpt>
      <trkpt lat="47.29505" lon="4.99398">
        <ele>353</ele>
        <time>2014-10-03T11:10:03Z</time>
      </trkpt>
      <trkpt lat="47.29486" lon="4.99394">
        <ele>352</ele>
        <time>2014-10-03T11:10:09Z</time>
      </trkpt>
      <trkpt lat="47.29468" lon="4.99384">
        <ele>351</ele>
        <time>2014-10-03T11:10:15Z</time>
      </trkpt>
      <trkpt lat="47.29452" lon="4.99383">
        <ele>352</ele>
        <time>2014-10-03T11:10:26Z</time>
      </trkpt>
      <trkpt lat="47.29451" lon="4.99385">
        <ele>353</ele>
        <time>2014-10-03T11:10:29Z</time>
      </trkpt>
      <trkpt lat="47.2945" lon="4.99384">
        <ele>345</ele>
        <time>2014-10-03T11:10:35Z</time>
      </trkpt>
    </trkseg>
  </trk>
</gpx>